sensor_id;sensor_type;location;lat;lon;timestamp;P1;durP1;ratioP1;P2;durP2;ratioP2
58518;SDS011;44310;48.106;12.008;2023-02-26T00:01:26;6.28;;;1.60;;
58518;SDS011;44310;48.106;12.008;2023-02-26T00:03:56;8.00;;;1.75;;
58518;SDS011;44310;48.106;12.008;2023-02-26T00:06:25;5.78;;;1.60;;
58518;SDS011;44310;48.106;12.008;2023-02-26T00:08:54;7.43;;;1.40;;
58518;SDS011;44310;48.106;12.008;2023-02-26T00:11:21;5.97;;;1.30;;
58518;SDS011;44310;48.106;12.008;2023-02-26T00:13:48;9.43;;;1.58;;
58518;SDS011;44310;48.106;12.008;2023-02-26T00:16:21;8.82;;;1.63;;
58518;SDS011;44310;48.106;12.008;2023-02-26T00:18:56;8.40;;;1.85;;
58518;SDS011;44310;48.106;12.008;2023-02-26T00:21:25;7.28;;;1.80;;
58518;SDS011;44310;48.106;12.008;2023-02-26T00:23:56;6.18;;;1.50;;
58518;SDS011;44310;48.106;12.008;2023-02-26T00:26:24;6.53;;;1.70;;
58518;SDS011;44310;48.106;12.008;2023-02-26T00:28:53;7.50;;;1.60;;
58518;SDS011;44310;48.106;12.008;2023-02-26T00:31:23;6.90;;;1.30;;
58518;SDS011;44310;48.106;12.008;2023-02-26T00:33:51;4.57;;;1.10;;
58518;SDS011;44310;48.106;12.008;2023-02-26T00:36:23;3.80;;;1.07;;
58518;SDS011;44310;48.106;12.008;2023-02-26T00:39:08;19.05;;;3.83;;
58518;SDS011;44310;48.106;12.008;2023-02-26T00:41:57;9.95;;;2.50;;
58518;SDS011;44310;48.106;12.008;2023-02-26T00:44:25;10.10;;;2.40;;
58518;SDS011;44310;48.106;12.008;2023-02-26T00:55:27;12.07;;;2.70;;
58518;SDS011;44310;48.106;12.008;2023-02-26T00:57:55;15.83;;;2.90;;
58518;SDS011;44310;48.106;12.008;2023-02-26T01:00:22;14.27;;;2.65;;
58518;SDS011;44310;48.106;12.008;2023-02-26T01:02:49;11.38;;;2.42;;
58518;SDS011;44310;48.106;12.008;2023-02-26T01:05:17;8.32;;;2.53;;
58518;SDS011;44310;48.106;12.008;2023-02-26T01:08:04;9.60;;;2.08;;
58518;SDS011;44310;48.106;12.008;2023-02-26T01:10:39;11.65;;;2.63;;
58518;SDS011;44310;48.106;12.008;2023-02-26T01:13:07;9.73;;;2.30;;
58518;SDS011;44310;48.106;12.008;2023-02-26T01:15:34;10.57;;;1.95;;
58518;SDS011;44310;48.106;12.008;2023-02-26T01:18:13;7.45;;;1.80;;
58518;SDS011;44310;48.106;12.008;2023-02-26T01:20:56;8.45;;;2.05;;
58518;SDS011;44310;48.106;12.008;2023-02-26T01:23:29;5.50;;;1.50;;
58518;SDS011;44310;48.106;12.008;2023-02-26T01:26:11;4.87;;;1.30;;
58518;SDS011;44310;48.106;12.008;2023-02-26T01:28:45;4.55;;;1.23;;
58518;SDS011;44310;48.106;12.008;2023-02-26T01:31:25;6.40;;;1.50;;
58518;SDS011;44310;48.106;12.008;2023-02-26T01:34:00;3.40;;;1.17;;
58518;SDS011;44310;48.106;12.008;2023-02-26T01:36:36;4.60;;;1.50;;
58518;SDS011;44310;48.106;12.008;2023-02-26T01:39:27;7.85;;;1.48;;
58518;SDS011;44310;48.106;12.008;2023-02-26T01:42:03;4.70;;;1.20;;
58518;SDS011;44310;48.106;12.008;2023-02-26T01:44:50;4.13;;;1.30;;
58518;SDS011;44310;48.106;12.008;2023-02-26T01:50:07;4.63;;;1.35;;
58518;SDS011;44310;48.106;12.008;2023-02-26T01:55:16;3.70;;;0.88;;
58518;SDS011;44310;48.106;12.008;2023-02-26T01:57:48;2.97;;;0.90;;
58518;SDS011;44310;48.106;12.008;2023-02-26T02:00:17;2.28;;;0.75;;
58518;SDS011;44310;48.106;12.008;2023-02-26T02:02:45;3.50;;;0.90;;
58518;SDS011;44310;48.106;12.008;2023-02-26T02:05:16;2.90;;;0.80;;
58518;SDS011;44310;48.106;12.008;2023-02-26T02:07:48;1.58;;;0.70;;
58518;SDS011;44310;48.106;12.008;2023-02-26T02:10:16;3.00;;;0.90;;
58518;SDS011;44310;48.106;12.008;2023-02-26T02:12:49;2.22;;;0.82;;
58518;SDS011;44310;48.106;12.008;2023-02-26T02:18:17;2.85;;;1.13;;
58518;SDS011;44310;48.106;12.008;2023-02-26T02:23:36;3.78;;;0.90;;
58518;SDS011;44310;48.106;12.008;2023-02-26T02:32:07;4.35;;;1.02;;
58518;SDS011;44310;48.106;12.008;2023-02-26T02:34:47;4.70;;;1.33;;
58518;SDS011;44310;48.106;12.008;2023-02-26T02:37:23;1.23;;;0.70;;
58518;SDS011;44310;48.106;12.008;2023-02-26T02:40:04;1.60;;;0.60;;
58518;SDS011;44310;48.106;12.008;2023-02-26T02:50:55;7.10;;;1.50;;
58518;SDS011;44310;48.106;12.008;2023-02-26T02:53:40;8.38;;;2.05;;
58518;SDS011;44310;48.106;12.008;2023-02-26T02:56:50;7.60;;;1.42;;
58518;SDS011;44310;48.106;12.008;2023-02-26T02:59:24;3.73;;;1.10;;
58518;SDS011;44310;48.106;12.008;2023-02-26T03:02:13;7.32;;;1.73;;
58518;SDS011;44310;48.106;12.008;2023-02-26T03:05:00;2.97;;;0.77;;
58518;SDS011;44310;48.106;12.008;2023-02-26T03:07:28;2.38;;;0.80;;
58518;SDS011;44310;48.106;12.008;2023-02-26T03:09:58;1.55;;;0.65;;
58518;SDS011;44310;48.106;12.008;2023-02-26T03:12:29;2.38;;;0.60;;
58518;SDS011;44310;48.106;12.008;2023-02-26T03:14:58;3.20;;;0.70;;
58518;SDS011;44310;48.106;12.008;2023-02-26T03:17:29;2.70;;;0.70;;
58518;SDS011;44310;48.106;12.008;2023-02-26T03:23:03;1.77;;;0.60;;
58518;SDS011;44310;48.106;12.008;2023-02-26T03:25:41;1.50;;;0.60;;
58518;SDS011;44310;48.106;12.008;2023-02-26T03:28:20;3.00;;;0.70;;
58518;SDS011;44310;48.106;12.008;2023-02-26T03:31:14;0.70;;;0.60;;
58518;SDS011;44310;48.106;12.008;2023-02-26T03:33:55;8.17;;;1.80;;
58518;SDS011;44310;48.106;12.008;2023-02-26T03:36:47;2.20;;;0.80;;
58518;SDS011;44310;48.106;12.008;2023-02-26T03:39:26;2.70;;;0.70;;
58518;SDS011;44310;48.106;12.008;2023-02-26T03:42:02;2.47;;;0.83;;
58518;SDS011;44310;48.106;12.008;2023-02-26T03:44:35;2.97;;;0.90;;
58518;SDS011;44310;48.106;12.008;2023-02-26T03:47:11;3.75;;;1.00;;
58518;SDS011;44310;48.106;12.008;2023-02-26T03:49:48;2.35;;;0.90;;
58518;SDS011;44310;48.106;12.008;2023-02-26T03:52:17;3.42;;;1.00;;
58518;SDS011;44310;48.106;12.008;2023-02-26T03:54:49;2.47;;;0.85;;
58518;SDS011;44310;48.106;12.008;2023-02-26T03:57:22;3.28;;;0.90;;
58518;SDS011;44310;48.106;12.008;2023-02-26T03:59:49;3.00;;;0.70;;
58518;SDS011;44310;48.106;12.008;2023-02-26T04:02:23;1.35;;;0.60;;
58518;SDS011;44310;48.106;12.008;2023-02-26T04:05:15;1.08;;;0.40;;
58518;SDS011;44310;48.106;12.008;2023-02-26T04:07:45;1.88;;;0.65;;
58518;SDS011;44310;48.106;12.008;2023-02-26T04:10:14;1.48;;;0.60;;
58518;SDS011;44310;48.106;12.008;2023-02-26T04:12:44;1.60;;;0.50;;
58518;SDS011;44310;48.106;12.008;2023-02-26T04:15:11;1.60;;;0.52;;
58518;SDS011;44310;48.106;12.008;2023-02-26T04:17:39;1.35;;;0.50;;
58518;SDS011;44310;48.106;12.008;2023-02-26T04:20:06;3.00;;;0.60;;
58518;SDS011;44310;48.106;12.008;2023-02-26T04:22:35;2.60;;;0.70;;
58518;SDS011;44310;48.106;12.008;2023-02-26T04:25:03;3.10;;;0.60;;
58518;SDS011;44310;48.106;12.008;2023-02-26T04:27:30;1.00;;;0.50;;
58518;SDS011;44310;48.106;12.008;2023-02-26T04:29:57;2.00;;;0.60;;
58518;SDS011;44310;48.106;12.008;2023-02-26T04:32:24;1.70;;;0.60;;
58518;SDS011;44310;48.106;12.008;2023-02-26T04:34:52;2.13;;;0.60;;
58518;SDS011;44310;48.106;12.008;2023-02-26T04:37:19;7.85;;;1.60;;
58518;SDS011;44310;48.106;12.008;2023-02-26T04:39:46;3.53;;;0.80;;
58518;SDS011;44310;48.106;12.008;2023-02-26T04:42:13;4.50;;;1.10;;
58518;SDS011;44310;48.106;12.008;2023-02-26T04:44:40;3.67;;;1.10;;
58518;SDS011;44310;48.106;12.008;2023-02-26T04:47:07;4.38;;;0.85;;
58518;SDS011;44310;48.106;12.008;2023-02-26T04:49:34;6.35;;;1.10;;
58518;SDS011;44310;48.106;12.008;2023-02-26T04:52:02;4.18;;;1.10;;
58518;SDS011;44310;48.106;12.008;2023-02-26T04:54:29;3.60;;;0.80;;
58518;SDS011;44310;48.106;12.008;2023-02-26T04:56:56;3.07;;;0.93;;
58518;SDS011;44310;48.106;12.008;2023-02-26T04:59:23;2.25;;;0.77;;
58518;SDS011;44310;48.106;12.008;2023-02-26T05:01:50;2.10;;;0.68;;
58518;SDS011;44310;48.106;12.008;2023-02-26T05:04:17;3.88;;;0.60;;
58518;SDS011;44310;48.106;12.008;2023-02-26T05:06:45;2.65;;;0.88;;
58518;SDS011;44310;48.106;12.008;2023-02-26T05:09:12;1.50;;;0.60;;
58518;SDS011;44310;48.106;12.008;2023-02-26T05:11:39;2.00;;;0.70;;
58518;SDS011;44310;48.106;12.008;2023-02-26T05:14:06;0.93;;;0.50;;
58518;SDS011;44310;48.106;12.008;2023-02-26T05:16:33;2.53;;;0.70;;
58518;SDS011;44310;48.106;12.008;2023-02-26T05:19:01;2.10;;;0.65;;
58518;SDS011;44310;48.106;12.008;2023-02-26T05:21:28;1.55;;;0.57;;
58518;SDS011;44310;48.106;12.008;2023-02-26T05:23:55;0.50;;;0.40;;
58518;SDS011;44310;48.106;12.008;2023-02-26T05:26:22;1.57;;;0.63;;
58518;SDS011;44310;48.106;12.008;2023-02-26T05:28:50;1.60;;;0.50;;
58518;SDS011;44310;48.106;12.008;2023-02-26T05:31:18;4.50;;;1.20;;
58518;SDS011;44310;48.106;12.008;2023-02-26T05:33:45;2.70;;;0.75;;
58518;SDS011;44310;48.106;12.008;2023-02-26T05:36:12;2.67;;;0.68;;
58518;SDS011;44310;48.106;12.008;2023-02-26T05:38:39;1.10;;;0.50;;
58518;SDS011;44310;48.106;12.008;2023-02-26T05:41:06;1.65;;;0.60;;
58518;SDS011;44310;48.106;12.008;2023-02-26T05:43:33;1.25;;;0.40;;
58518;SDS011;44310;48.106;12.008;2023-02-26T05:46:01;1.00;;;0.43;;
58518;SDS011;44310;48.106;12.008;2023-02-26T05:48:28;1.73;;;0.50;;
58518;SDS011;44310;48.106;12.008;2023-02-26T05:50:55;4.10;;;1.00;;
58518;SDS011;44310;48.106;12.008;2023-02-26T05:53:23;2.60;;;0.90;;
58518;SDS011;44310;48.106;12.008;2023-02-26T05:55:51;1.83;;;0.60;;
58518;SDS011;44310;48.106;12.008;2023-02-26T05:58:19;2.50;;;0.60;;
58518;SDS011;44310;48.106;12.008;2023-02-26T06:00:46;4.07;;;0.90;;
58518;SDS011;44310;48.106;12.008;2023-02-26T06:03:13;3.30;;;0.90;;
58518;SDS011;44310;48.106;12.008;2023-02-26T06:05:41;2.28;;;0.77;;
58518;SDS011;44310;48.106;12.008;2023-02-26T06:08:08;2.75;;;0.65;;
58518;SDS011;44310;48.106;12.008;2023-02-26T06:10:37;4.43;;;1.08;;
58518;SDS011;44310;48.106;12.008;2023-02-26T06:13:04;3.00;;;0.70;;
58518;SDS011;44310;48.106;12.008;2023-02-26T06:15:31;4.88;;;0.80;;
58518;SDS011;44310;48.106;12.008;2023-02-26T06:17:58;3.22;;;0.90;;
58518;SDS011;44310;48.106;12.008;2023-02-26T06:20:26;3.55;;;0.90;;
58518;SDS011;44310;48.106;12.008;2023-02-26T06:22:53;1.73;;;0.70;;
58518;SDS011;44310;48.106;12.008;2023-02-26T06:25:20;2.77;;;0.80;;
58518;SDS011;44310;48.106;12.008;2023-02-26T06:27:47;4.13;;;0.70;;
58518;SDS011;44310;48.106;12.008;2023-02-26T06:30:14;1.55;;;0.60;;
58518;SDS011;44310;48.106;12.008;2023-02-26T06:32:43;2.30;;;0.50;;
58518;SDS011;44310;48.106;12.008;2023-02-26T06:35:11;4.82;;;0.80;;
58518;SDS011;44310;48.106;12.008;2023-02-26T06:37:38;1.50;;;0.60;;
58518;SDS011;44310;48.106;12.008;2023-02-26T06:40:05;0.55;;;0.40;;
58518;SDS011;44310;48.106;12.008;2023-02-26T06:42:33;0.65;;;0.40;;
58518;SDS011;44310;48.106;12.008;2023-02-26T06:45:00;2.40;;;0.73;;
58518;SDS011;44310;48.106;12.008;2023-02-26T06:47:27;1.05;;;0.52;;
58518;SDS011;44310;48.106;12.008;2023-02-26T06:49:56;0.80;;;0.30;;
58518;SDS011;44310;48.106;12.008;2023-02-26T06:52:23;1.00;;;0.40;;
58518;SDS011;44310;48.106;12.008;2023-02-26T06:54:51;1.00;;;0.40;;
58518;SDS011;44310;48.106;12.008;2023-02-26T06:57:18;7.90;;;1.50;;
58518;SDS011;44310;48.106;12.008;2023-02-26T06:59:45;2.40;;;0.90;;
58518;SDS011;44310;48.106;12.008;2023-02-26T07:02:14;2.45;;;0.75;;
58518;SDS011;44310;48.106;12.008;2023-02-26T07:04:43;3.28;;;0.80;;
58518;SDS011;44310;48.106;12.008;2023-02-26T07:07:11;1.60;;;0.63;;
58518;SDS011;44310;48.106;12.008;2023-02-26T07:09:39;1.10;;;0.50;;
58518;SDS011;44310;48.106;12.008;2023-02-26T07:12:06;4.32;;;1.00;;
58518;SDS011;44310;48.106;12.008;2023-02-26T07:14:34;4.00;;;0.90;;
58518;SDS011;44310;48.106;12.008;2023-02-26T07:17:01;6.87;;;1.30;;
58518;SDS011;44310;48.106;12.008;2023-02-26T07:19:28;7.50;;;1.60;;
58518;SDS011;44310;48.106;12.008;2023-02-26T07:21:55;4.75;;;1.00;;
58518;SDS011;44310;48.106;12.008;2023-02-26T07:24:23;6.38;;;1.00;;
58518;SDS011;44310;48.106;12.008;2023-02-26T07:26:51;4.85;;;1.10;;
58518;SDS011;44310;48.106;12.008;2023-02-26T07:29:18;4.38;;;0.90;;
58518;SDS011;44310;48.106;12.008;2023-02-26T07:31:45;3.87;;;0.90;;
58518;SDS011;44310;48.106;12.008;2023-02-26T07:34:12;3.85;;;0.93;;
58518;SDS011;44310;48.106;12.008;2023-02-26T07:36:40;2.85;;;0.90;;
58518;SDS011;44310;48.106;12.008;2023-02-26T07:39:07;8.23;;;1.58;;
58518;SDS011;44310;48.106;12.008;2023-02-26T07:41:34;6.30;;;1.20;;
58518;SDS011;44310;48.106;12.008;2023-02-26T07:44:01;6.63;;;1.60;;
58518;SDS011;44310;48.106;12.008;2023-02-26T07:46:28;5.55;;;1.40;;
58518;SDS011;44310;48.106;12.008;2023-02-26T07:48:56;3.60;;;1.20;;
58518;SDS011;44310;48.106;12.008;2023-02-26T07:51:23;3.42;;;0.98;;
58518;SDS011;44310;48.106;12.008;2023-02-26T07:53:50;2.77;;;0.90;;
58518;SDS011;44310;48.106;12.008;2023-02-26T07:56:18;3.23;;;0.70;;
58518;SDS011;44310;48.106;12.008;2023-02-26T07:58:45;3.07;;;0.80;;
58518;SDS011;44310;48.106;12.008;2023-02-26T08:01:12;3.10;;;0.80;;
58518;SDS011;44310;48.106;12.008;2023-02-26T08:03:39;9.20;;;2.20;;
58518;SDS011;44310;48.106;12.008;2023-02-26T08:06:06;14.50;;;3.00;;
58518;SDS011;44310;48.106;12.008;2023-02-26T08:08:33;13.63;;;2.95;;
58518;SDS011;44310;48.106;12.008;2023-02-26T08:11:01;10.23;;;2.50;;
58518;SDS011;44310;48.106;12.008;2023-02-26T08:13:28;12.63;;;2.50;;
58518;SDS011;44310;48.106;12.008;2023-02-26T08:15:55;9.03;;;2.10;;
58518;SDS011;44310;48.106;12.008;2023-02-26T08:18:22;5.20;;;1.33;;
58518;SDS011;44310;48.106;12.008;2023-02-26T08:20:50;5.00;;;1.33;;
58518;SDS011;44310;48.106;12.008;2023-02-26T08:23:18;3.25;;;1.00;;
58518;SDS011;44310;48.106;12.008;2023-02-26T08:25:45;4.47;;;1.03;;
58518;SDS011;44310;48.106;12.008;2023-02-26T08:28:12;3.65;;;1.00;;
58518;SDS011;44310;48.106;12.008;2023-02-26T08:30:39;6.10;;;1.13;;
58518;SDS011;44310;48.106;12.008;2023-02-26T08:33:06;4.55;;;1.30;;
58518;SDS011;44310;48.106;12.008;2023-02-26T08:35:34;7.30;;;1.40;;
58518;SDS011;44310;48.106;12.008;2023-02-26T08:38:01;3.35;;;1.10;;
58518;SDS011;44310;48.106;12.008;2023-02-26T08:40:28;4.15;;;1.38;;
58518;SDS011;44310;48.106;12.008;2023-02-26T08:42:55;13.52;;;2.50;;
58518;SDS011;44310;48.106;12.008;2023-02-26T08:45:25;8.30;;;1.98;;
58518;SDS011;44310;48.106;12.008;2023-02-26T08:47:52;9.50;;;1.80;;
58518;SDS011;44310;48.106;12.008;2023-02-26T08:50:23;7.57;;;1.58;;
58518;SDS011;44310;48.106;12.008;2023-02-26T08:52:51;15.60;;;3.10;;
58518;SDS011;44310;48.106;12.008;2023-02-26T08:55:18;11.73;;;2.90;;
58518;SDS011;44310;48.106;12.008;2023-02-26T08:57:45;11.23;;;2.38;;
58518;SDS011;44310;48.106;12.008;2023-02-26T09:00:12;12.60;;;2.80;;
58518;SDS011;44310;48.106;12.008;2023-02-26T09:02:44;11.20;;;2.50;;
58518;SDS011;44310;48.106;12.008;2023-02-26T09:05:11;6.57;;;2.08;;
58518;SDS011;44310;48.106;12.008;2023-02-26T09:07:40;10.48;;;2.10;;
58518;SDS011;44310;48.106;12.008;2023-02-26T09:10:08;11.45;;;2.10;;
58518;SDS011;44310;48.106;12.008;2023-02-26T09:12:36;4.82;;;1.45;;
58518;SDS011;44310;48.106;12.008;2023-02-26T09:15:04;6.32;;;1.50;;
58518;SDS011;44310;48.106;12.008;2023-02-26T09:17:32;4.32;;;1.30;;
58518;SDS011;44310;48.106;12.008;2023-02-26T09:20:00;6.75;;;1.48;;
58518;SDS011;44310;48.106;12.008;2023-02-26T09:22:27;5.82;;;1.25;;
58518;SDS011;44310;48.106;12.008;2023-02-26T09:24:54;5.88;;;1.85;;
58518;SDS011;44310;48.106;12.008;2023-02-26T09:27:21;7.65;;;1.63;;
58518;SDS011;44310;48.106;12.008;2023-02-26T09:29:49;7.15;;;1.48;;
58518;SDS011;44310;48.106;12.008;2023-02-26T09:32:16;6.60;;;1.77;;
58518;SDS011;44310;48.106;12.008;2023-02-26T09:34:43;4.72;;;1.50;;
58518;SDS011;44310;48.106;12.008;2023-02-26T09:37:10;8.23;;;1.63;;
58518;SDS011;44310;48.106;12.008;2023-02-26T09:39:37;7.63;;;1.50;;
58518;SDS011;44310;48.106;12.008;2023-02-26T09:42:18;6.43;;;1.60;;
58518;SDS011;44310;48.106;12.008;2023-02-26T09:45:09;6.32;;;1.42;;
58518;SDS011;44310;48.106;12.008;2023-02-26T09:47:46;5.25;;;1.27;;
58518;SDS011;44310;48.106;12.008;2023-02-26T09:50:21;3.08;;;1.05;;
58518;SDS011;44310;48.106;12.008;2023-02-26T09:53:02;2.80;;;0.93;;
58518;SDS011;44310;48.106;12.008;2023-02-26T09:55:37;2.30;;;0.90;;
58518;SDS011;44310;48.106;12.008;2023-02-26T09:58:18;4.35;;;1.00;;
58518;SDS011;44310;48.106;12.008;2023-02-26T10:07:05;2.50;;;0.70;;
58518;SDS011;44310;48.106;12.008;2023-02-26T10:12:24;3.55;;;0.90;;
58518;SDS011;44310;48.106;12.008;2023-02-26T10:17:35;3.75;;;0.80;;
58518;SDS011;44310;48.106;12.008;2023-02-26T10:20:22;3.13;;;1.08;;
58518;SDS011;44310;48.106;12.008;2023-02-26T10:25:41;5.38;;;1.13;;
58518;SDS011;44310;48.106;12.008;2023-02-26T10:31:08;4.63;;;1.45;;
58518;SDS011;44310;48.106;12.008;2023-02-26T10:33:42;6.10;;;1.23;;
58518;SDS011;44310;48.106;12.008;2023-02-26T10:36:27;2.25;;;1.00;;
58518;SDS011;44310;48.106;12.008;2023-02-26T10:39:03;3.00;;;0.90;;
58518;SDS011;44310;48.106;12.008;2023-02-26T10:41:41;1.83;;;0.77;;
58518;SDS011;44310;48.106;12.008;2023-02-26T10:44:13;2.50;;;0.90;;
58518;SDS011;44310;48.106;12.008;2023-02-26T10:46:55;2.53;;;0.80;;
58518;SDS011;44310;48.106;12.008;2023-02-26T10:49:44;1.48;;;0.77;;
58518;SDS011;44310;48.106;12.008;2023-02-26T10:52:19;2.28;;;0.80;;
58518;SDS011;44310;48.106;12.008;2023-02-26T10:57:39;1.98;;;0.70;;
58518;SDS011;44310;48.106;12.008;2023-02-26T11:00:14;1.23;;;0.55;;
58518;SDS011;44310;48.106;12.008;2023-02-26T11:02:45;2.17;;;0.70;;
58518;SDS011;44310;48.106;12.008;2023-02-26T11:05:16;3.88;;;0.90;;
58518;SDS011;44310;48.106;12.008;2023-02-26T11:07:50;2.03;;;0.77;;
58518;SDS011;44310;48.106;12.008;2023-02-26T11:10:22;10.70;;;2.33;;
58518;SDS011;44310;48.106;12.008;2023-02-26T11:12:51;13.63;;;2.90;;
58518;SDS011;44310;48.106;12.008;2023-02-26T11:15:21;11.70;;;2.63;;
58518;SDS011;44310;48.106;12.008;2023-02-26T11:17:55;9.25;;;2.38;;
58518;SDS011;44310;48.106;12.008;2023-02-26T11:20:29;11.70;;;2.15;;
58518;SDS011;44310;48.106;12.008;2023-02-26T11:22:57;5.47;;;1.80;;
58518;SDS011;44310;48.106;12.008;2023-02-26T11:25:28;6.43;;;1.55;;
58518;SDS011;44310;48.106;12.008;2023-02-26T11:28:02;6.80;;;1.70;;
58518;SDS011;44310;48.106;12.008;2023-02-26T11:30:35;7.93;;;1.77;;
58518;SDS011;44310;48.106;12.008;2023-02-26T11:33:06;5.82;;;1.77;;
58518;SDS011;44310;48.106;12.008;2023-02-26T11:35:42;5.23;;;1.40;;
58518;SDS011;44310;48.106;12.008;2023-02-26T11:38:15;3.70;;;1.03;;
58518;SDS011;44310;48.106;12.008;2023-02-26T11:40:47;3.17;;;1.10;;
58518;SDS011;44310;48.106;12.008;2023-02-26T11:43:18;3.25;;;1.00;;
58518;SDS011;44310;48.106;12.008;2023-02-26T11:45:48;3.50;;;0.93;;
58518;SDS011;44310;48.106;12.008;2023-02-26T11:48:42;3.50;;;0.90;;
58518;SDS011;44310;48.106;12.008;2023-02-26T11:51:20;2.78;;;0.70;;
58518;SDS011;44310;48.106;12.008;2023-02-26T11:53:52;2.55;;;0.85;;
58518;SDS011;44310;48.106;12.008;2023-02-26T11:56:31;2.05;;;0.85;;
58518;SDS011;44310;48.106;12.008;2023-02-26T11:59:06;3.90;;;0.90;;
58518;SDS011;44310;48.106;12.008;2023-02-26T12:01:53;3.10;;;1.00;;
58518;SDS011;44310;48.106;12.008;2023-02-26T12:04:22;9.02;;;1.48;;
58518;SDS011;44310;48.106;12.008;2023-02-26T12:06:53;4.75;;;1.20;;
58518;SDS011;44310;48.106;12.008;2023-02-26T12:09:21;3.72;;;1.15;;
58518;SDS011;44310;48.106;12.008;2023-02-26T12:12:04;4.25;;;1.30;;
58518;SDS011;44310;48.106;12.008;2023-02-26T12:17:35;5.10;;;1.60;;
58518;SDS011;44310;48.106;12.008;2023-02-26T12:31:48;3.05;;;1.00;;
58518;SDS011;44310;48.106;12.008;2023-02-26T12:51:09;7.32;;;1.63;;
58518;SDS011;44310;48.106;12.008;2023-02-26T13:02:38;21.13;;;4.55;;
58518;SDS011;44310;48.106;12.008;2023-02-26T13:08:24;12.38;;;2.90;;
58518;SDS011;44310;48.106;12.008;2023-02-26T13:11:02;14.70;;;2.80;;
58518;SDS011;44310;48.106;12.008;2023-02-26T13:13:53;11.37;;;2.30;;
58518;SDS011;44310;48.106;12.008;2023-02-26T13:16:49;12.20;;;2.38;;
58518;SDS011;44310;48.106;12.008;2023-02-26T13:19:25;11.38;;;2.03;;
58518;SDS011;44310;48.106;12.008;2023-02-26T13:21:58;12.75;;;2.55;;
58518;SDS011;44310;48.106;12.008;2023-02-26T13:24:34;10.87;;;2.30;;
58518;SDS011;44310;48.106;12.008;2023-02-26T13:27:05;6.13;;;1.63;;
58518;SDS011;44310;48.106;12.008;2023-02-26T13:29:36;13.73;;;2.85;;
58518;SDS011;44310;48.106;12.008;2023-02-26T13:32:11;13.53;;;2.70;;
58518;SDS011;44310;48.106;12.008;2023-02-26T13:34:55;13.75;;;3.38;;
58518;SDS011;44310;48.106;12.008;2023-02-26T13:37:33;19.88;;;3.08;;
58518;SDS011;44310;48.106;12.008;2023-02-26T13:43:28;4.90;;;1.42;;
58518;SDS011;44310;48.106;12.008;2023-02-26T13:46:32;6.83;;;2.03;;
58518;SDS011;44310;48.106;12.008;2023-02-26T13:51:55;5.82;;;1.88;;
58518;SDS011;44310;48.106;12.008;2023-02-26T13:59:52;12.90;;;2.60;;
58518;SDS011;44310;48.106;12.008;2023-02-26T14:10:45;16.92;;;3.15;;
58518;SDS011;44310;48.106;12.008;2023-02-26T14:13:32;13.83;;;3.10;;
58518;SDS011;44310;48.106;12.008;2023-02-26T14:16:11;13.73;;;3.17;;
58518;SDS011;44310;48.106;12.008;2023-02-26T14:23:55;13.77;;;2.72;;
58518;SDS011;44310;48.106;12.008;2023-02-26T14:26:26;8.32;;;1.98;;
58518;SDS011;44310;48.106;12.008;2023-02-26T14:29:06;30.85;;;6.32;;
58518;SDS011;44310;48.106;12.008;2023-02-26T14:34:20;11.52;;;2.88;;
58518;SDS011;44310;48.106;12.008;2023-02-26T14:36:51;9.52;;;2.58;;
58518;SDS011;44310;48.106;12.008;2023-02-26T14:42:14;5.43;;;1.83;;
58518;SDS011;44310;48.106;12.008;2023-02-26T14:44:53;6.80;;;2.00;;
58518;SDS011;44310;48.106;12.008;2023-02-26T14:47:40;9.82;;;2.63;;
58518;SDS011;44310;48.106;12.008;2023-02-26T14:50:07;8.43;;;2.42;;
58518;SDS011;44310;48.106;12.008;2023-02-26T14:52:50;7.40;;;1.83;;
58518;SDS011;44310;48.106;12.008;2023-02-26T14:55:43;14.73;;;3.63;;
58518;SDS011;44310;48.106;12.008;2023-02-26T15:01:23;9.60;;;2.40;;
58518;SDS011;44310;48.106;12.008;2023-02-26T15:15:33;6.53;;;1.50;;
58518;SDS011;44310;48.106;12.008;2023-02-26T15:23:23;8.13;;;1.88;;
58518;SDS011;44310;48.106;12.008;2023-02-26T15:26:03;5.63;;;1.63;;
58518;SDS011;44310;48.106;12.008;2023-02-26T15:28:36;3.75;;;1.30;;
58518;SDS011;44310;48.106;12.008;2023-02-26T15:31:06;5.25;;;1.65;;
58518;SDS011;44310;48.106;12.008;2023-02-26T15:33:38;3.38;;;1.10;;
58518;SDS011;44310;48.106;12.008;2023-02-26T15:36:08;3.20;;;1.00;;
58518;SDS011;44310;48.106;12.008;2023-02-26T15:38:40;3.20;;;1.00;;
58518;SDS011;44310;48.106;12.008;2023-02-26T15:41:09;2.70;;;0.87;;
58518;SDS011;44310;48.106;12.008;2023-02-26T15:43:38;2.53;;;0.70;;
58518;SDS011;44310;48.106;12.008;2023-02-26T15:46:09;2.20;;;0.80;;
58518;SDS011;44310;48.106;12.008;2023-02-26T15:48:37;2.63;;;0.80;;
58518;SDS011;44310;48.106;12.008;2023-02-26T15:51:08;3.17;;;0.70;;
58518;SDS011;44310;48.106;12.008;2023-02-26T15:53:42;1.73;;;0.60;;
58518;SDS011;44310;48.106;12.008;2023-02-26T15:56:16;0.85;;;0.50;;
58518;SDS011;44310;48.106;12.008;2023-02-26T15:58:49;2.30;;;0.70;;
58518;SDS011;44310;48.106;12.008;2023-02-26T16:01:36;1.45;;;0.50;;
58518;SDS011;44310;48.106;12.008;2023-02-26T16:04:07;0.82;;;0.50;;
58518;SDS011;44310;48.106;12.008;2023-02-26T16:06:43;1.17;;;0.53;;
58518;SDS011;44310;48.106;12.008;2023-02-26T16:09:15;0.60;;;0.40;;
58518;SDS011;44310;48.106;12.008;2023-02-26T16:11:44;0.90;;;0.63;;
58518;SDS011;44310;48.106;12.008;2023-02-26T16:14:15;1.27;;;0.40;;
58518;SDS011;44310;48.106;12.008;2023-02-26T16:16:47;2.03;;;0.40;;
58518;SDS011;44310;48.106;12.008;2023-02-26T16:19:18;1.00;;;0.40;;
58518;SDS011;44310;48.106;12.008;2023-02-26T16:21:49;0.93;;;0.30;;
58518;SDS011;44310;48.106;12.008;2023-02-26T16:24:19;1.15;;;0.50;;
58518;SDS011;44310;48.106;12.008;2023-02-26T16:26:52;3.92;;;1.13;;
58518;SDS011;44310;48.106;12.008;2023-02-26T16:29:24;3.25;;;0.80;;
58518;SDS011;44310;48.106;12.008;2023-02-26T16:31:54;2.90;;;0.80;;
58518;SDS011;44310;48.106;12.008;2023-02-26T16:45:24;1.70;;;0.45;;
58518;SDS011;44310;48.106;12.008;2023-02-26T16:48:11;4.63;;;1.10;;
58518;SDS011;44310;48.106;12.008;2023-02-26T16:50:42;4.90;;;1.00;;
58518;SDS011;44310;48.106;12.008;2023-02-26T16:53:14;4.28;;;1.23;;
58518;SDS011;44310;48.106;12.008;2023-02-26T16:55:49;1.80;;;0.60;;
58518;SDS011;44310;48.106;12.008;2023-02-26T16:58:19;0.93;;;0.47;;
58518;SDS011;44310;48.106;12.008;2023-02-26T17:00:49;3.55;;;1.02;;
58518;SDS011;44310;48.106;12.008;2023-02-26T17:03:25;3.80;;;0.80;;
58518;SDS011;44310;48.106;12.008;2023-02-26T17:08:34;11.20;;;2.17;;
58518;SDS011;44310;48.106;12.008;2023-02-26T17:11:08;19.48;;;4.47;;
58518;SDS011;44310;48.106;12.008;2023-02-26T17:13:56;23.77;;;4.90;;
58518;SDS011;44310;48.106;12.008;2023-02-26T17:16:29;17.77;;;3.75;;
58518;SDS011;44310;48.106;12.008;2023-02-26T17:18:57;19.42;;;3.30;;
58518;SDS011;44310;48.106;12.008;2023-02-26T17:21:24;17.45;;;3.53;;
58518;SDS011;44310;48.106;12.008;2023-02-26T17:23:51;16.73;;;3.47;;
58518;SDS011;44310;48.106;12.008;2023-02-26T17:26:19;13.80;;;3.30;;
58518;SDS011;44310;48.106;12.008;2023-02-26T17:28:46;9.77;;;2.57;;
58518;SDS011;44310;48.106;12.008;2023-02-26T17:31:13;12.63;;;2.58;;
58518;SDS011;44310;48.106;12.008;2023-02-26T17:33:41;9.75;;;2.53;;
58518;SDS011;44310;48.106;12.008;2023-02-26T17:36:12;8.10;;;2.08;;
58518;SDS011;44310;48.106;12.008;2023-02-26T17:38:41;9.00;;;2.10;;
58518;SDS011;44310;48.106;12.008;2023-02-26T17:41:16;11.10;;;2.40;;
58518;SDS011;44310;48.106;12.008;2023-02-26T17:43:44;8.38;;;1.98;;
58518;SDS011;44310;48.106;12.008;2023-02-26T17:46:11;7.28;;;1.88;;